Time;durP1;ratioP1;P1;durP2;ratioP2;P2;SDS_P1;SDS_P2;PMS_P1;PMS_P2;Temp;Humidity;BMP_temperature;BMP_pressure;BME280_temperature;BME280_humidity;BME280_pressure;Samples;Min_cycle;Max_cycle;Signal;HPM_P1;HPM_P2
2022/07/19 00:01:16;;;;;;;6.40;3.13;;;;;;;23.79;61.03;101933.34;5062612;28;20029;-70
2022/07/19 00:03:41;;;;;;;7.10;3.22;;;;;;;23.73;62.25;101921.19;5044956;28;20755;-69
2022/07/19 00:06:07;;;;;;;7.35;3.25;;;;;;;23.69;63.10;101921.53;5046166;28;20025;-70
2022/07/19 00:08:32;;;;;;;4.28;2.85;;;;;;;23.62;63.60;101923.78;5064116;28;20540;-70
2022/07/19 00:10:57;;;;;;;5.50;3.13;;;;;;;23.56;63.85;101919.72;5060890;28;20154;-69
2022/07/19 00:13:23;;;;;;;4.18;2.95;;;;;;;23.48;63.59;101922.97;5043777;28;20017;-72
2022/07/19 00:15:48;;;;;;;5.45;2.88;;;;;;;23.41;63.56;101916.31;5025443;28;20464;-69
2022/07/19 00:18:15;;;;;;;12.43;3.10;;;;;;;23.36;64.30;101923.84;5043097;28;20056;-69
2022/07/19 00:20:40;;;;;;;4.50;3.53;;;;;;;23.33;63.88;101927.59;5043397;28;20407;-69
2022/07/19 00:23:05;;;;;;;5.07;3.22;;;;;;;23.29;64.03;101926.09;5044634;28;20028;-69
2022/07/19 00:25:31;;;;;;;5.10;3.08;;;;;;;23.26;64.50;101923.63;5024988;28;20495;-69
2022/07/19 00:27:56;;;;;;;4.50;3.10;;;;;;;23.21;64.42;101920.41;5027328;28;20471;-68
2022/07/19 00:30:21;;;;;;;5.22;3.30;;;;;;;23.18;64.25;101921.47;5029826;28;20021;-68
2022/07/19 00:32:47;;;;;;;5.68;2.90;;;;;;;23.13;64.52;101922.75;5046128;28;20059;-69
2022/07/19 00:35:12;;;;;;;6.43;3.50;;;;;;;23.09;64.79;101912.22;5061460;28;20028;-69
2022/07/19 00:37:38;;;;;;;8.82;3.38;;;;;;;23.07;64.01;101916.00;5049624;28;20122;-69
2022/07/19 00:40:03;;;;;;;4.78;3.15;;;;;;;23.08;64.45;101915.03;5067564;28;20024;-69
2022/07/19 00:42:29;;;;;;;5.53;3.15;;;;;;;23.08;64.29;101913.22;5066489;28;20490;-69
2022/07/19 00:44:54;;;;;;;6.78;3.40;;;;;;;23.10;63.81;101915.78;5066735;28;20049;-69
2022/07/19 00:47:20;;;;;;;4.70;3.10;;;;;;;23.08;64.13;101913.22;5065392;28;20046;-69
2022/07/19 00:49:45;;;;;;;9.38;3.75;;;;;;;23.05;64.08;101917.91;5046751;28;20040;-69
2022/07/19 00:52:13;;;;;;;4.18;3.35;;;;;;;23.02;64.18;101919.00;5046416;28;20025;-69
2022/07/19 00:54:39;;;;;;;5.70;2.97;;;;;;;22.97;63.91;101916.63;5063052;28;20029;-69
2022/07/19 00:57:05;;;;;;;5.35;3.35;;;;;;;22.94;64.52;101919.53;5065041;28;20355;-68
2022/07/19 00:59:31;;;;;;;7.07;3.13;;;;;;;22.92;65.10;101921.50;5065968;28;20077;-69
2022/07/19 01:01:58;;;;;;;7.50;3.28;;;;;;;22.88;64.59;101919.13;5051200;28;20045;-69
2022/07/19 01:04:23;;;;;;;5.45;3.10;;;;;;;22.88;64.53;101924.50;5028278;28;20426;-70
2022/07/19 01:06:49;;;;;;;4.95;3.30;;;;;;;22.88;64.25;101921.81;5045949;28;20043;-69
2022/07/19 01:09:14;;;;;;;4.32;3.00;;;;;;;22.85;63.83;101920.22;5046689;28;20443;-70
2022/07/19 01:11:40;;;;;;;6.15;3.40;;;;;;;22.82;63.71;101912.34;5028248;28;20040;-70
2022/07/19 01:14:05;;;;;;;3.67;3.00;;;;;;;22.78;63.96;101922.44;5046969;28;20021;-69
2022/07/19 01:16:30;;;;;;;6.38;3.53;;;;;;;22.76;63.72;101912.78;5044599;28;20041;-70
2022/07/19 01:18:56;;;;;;;7.90;3.50;;;;;;;22.75;63.73;101911.06;5045529;28;20078;-69
2022/07/19 01:21:22;;;;;;;4.28;3.00;;;;;;;22.76;63.64;101910.09;5050159;28;20037;-68
2022/07/19 01:23:48;;;;;;;5.80;3.38;;;;;;;22.72;63.29;101912.13;5046218;28;20429;-68
2022/07/19 01:26:14;;;;;;;6.47;3.50;;;;;;;22.69;63.41;101906.94;5045202;28;20487;-69
2022/07/19 01:28:39;;;;;;;8.93;3.25;;;;;;;22.68;63.37;101908.78;5045380;28;20028;-68
2022/07/19 01:31:04;;;;;;;5.10;2.80;;;;;;;22.66;63.24;101908.03;5065500;28;20692;-68
2022/07/19 01:33:30;;;;;;;4.95;2.88;;;;;;;22.63;63.52;101905.56;5050139;28;20115;-68
2022/07/19 01:35:55;;;;;;;4.72;2.90;;;;;;;22.65;63.30;101908.13;5046029;28;20108;-69
2022/07/19 01:38:21;;;;;;;4.60;3.25;;;;;;;22.61;63.36;101909.31;5057491;28;20028;-69
2022/07/19 01:40:46;;;;;;;6.30;3.20;;;;;;;22.59;63.49;101907.59;5066060;28;20079;-70
2022/07/19 01:43:11;;;;;;;4.95;3.17;;;;;;;22.57;63.38;101906.84;5054619;28;20032;-69
2022/07/19 01:45:37;;;;;;;6.10;3.58;;;;;;;22.54;63.30;101900.78;5045798;28;20124;-69
2022/07/19 01:48:02;;;;;;;5.00;3.08;;;;;;;22.55;63.50;101897.13;5044668;28;20123;-70
2022/07/19 01:50:28;;;;;;;6.15;3.13;;;;;;;22.53;63.73;101896.38;5045625;28;20825;-69
2022/07/19 01:52:53;;;;;;;4.85;3.40;;;;;;;22.54;63.54;101898.09;5049768;28;20038;-69
2022/07/19 01:55:19;;;;;;;6.38;3.78;;;;;;;22.52;63.54;101897.34;5064664;28;20526;-70
2022/07/19 01:57:46;;;;;;;5.22;3.20;;;;;;;22.54;63.35;101892.72;5057514;28;20049;-72
2022/07/19 02:00:12;;;;;;;5.53;3.20;;;;;;;22.55;63.18;101899.81;5027548;28;20029;-69
2022/07/19 02:02:38;;;;;;;4.30;3.60;;;;;;;22.55;63.38;101894.47;5048876;28;20678;-69
2022/07/19 02:05:03;;;;;;;6.97;3.85;;;;;;;22.53;63.30;101891.00;5065715;28;20108;-70
2022/07/19 02:07:29;;;;;;;6.38;3.65;;;;;;;22.52;63.04;101887.47;5062046;28;20024;-70
2022/07/19 02:09:57;;;;;;;8.00;3.30;;;;;;;22.51;62.73;101888.41;5028170;28;20090;-69
2022/07/19 02:12:22;;;;;;;4.20;3.35;;;;;;;22.51;62.64;101885.72;5044171;28;20051;-68
2022/07/19 02:14:47;;;;;;;7.72;3.35;;;;;;;22.50;62.26;101880.47;5065738;28;20020;-70
2022/07/19 02:17:13;;;;;;;7.20;3.90;;;;;;;22.53;62.15;101877.56;5064476;28;20482;-69
2022/07/19 02:19:38;;;;;;;5.07;3.45;;;;;;;22.55;62.15;101875.66;5047767;28;20677;-69
2022/07/19 02:22:03;;;;;;;5.60;3.42;;;;;;;22.55;62.02;101881.88;5045329;28;20048;-69
2022/07/19 02:24:29;;;;;;;5.45;3.58;;;;;;;22.55;62.03;101883.72;5059244;28;20046;-69
2022/07/19 02:26:54;;;;;;;6.13;3.80;;;;;;;22.50;62.29;101878.66;5064787;28;20020;-70
2022/07/19 02:29:19;;;;;;;7.32;3.63;;;;;;;22.52;62.01;101875.88;5051484;28;20032;-70
2022/07/19 02:31:45;;;;;;;5.03;3.65;;;;;;;22.51;62.34;101879.53;5044168;28;20032;-70
2022/07/19 02:34:10;;;;;;;4.88;3.40;;;;;;;22.51;61.96;101874.16;5045909;28;20028;-69
2022/07/19 02:36:35;;;;;;;5.22;4.00;;;;;;;22.51;61.57;101875.00;5028966;28;20114;-70
2022/07/19 02:39:00;;;;;;;5.57;3.85;;;;;;;22.55;61.68;101872.97;5076551;28;20013;-71
2022/07/19 02:41:26;;;;;;;6.38;4.22;;;;;;;22.55;61.29;101876.50;5062607;28;20052;-70
2022/07/19 02:43:51;;;;;;;5.32;4.35;;;;;;;22.59;60.82;101874.50;5072383;28;20029;-71
2022/07/19 02:46:17;;;;;;;9.48;3.80;;;;;;;22.57;60.68;101874.59;5055760;28;20044;-70
2022/07/19 02:48:42;;;;;;;6.68;3.72;;;;;;;22.57;60.67;101871.03;5064074;28;20032;-70
2022/07/19 02:51:14;;;;;;;6.57;3.55;;;;;;;22.57;60.71;101868.34;5063501;28;20021;-70
2022/07/19 02:53:39;;;;;;;6.47;4.32;;;;;;;22.58;60.33;101873.63;5065122;28;20025;-69
2022/07/19 02:56:05;;;;;;;5.85;3.72;;;;;;;22.56;60.33;101872.00;5064826;28;20771;-70
2022/07/19 02:58:30;;;;;;;8.00;3.92;;;;;;;22.52;60.19;101868.69;5064235;28;20024;-70
2022/07/19 03:00:55;;;;;;;6.47;4.32;;;;;;;22.52;60.61;101870.50;5063821;28;20471;-70
2022/07/19 03:06:05;;;;;;;6.63;4.32;;;;;;;22.43;60.85;101867.47;5045246;28;20047;-70
2022/07/19 03:08:30;;;;;;;7.28;4.30;;;;;;;22.43;60.82;101867.47;5043901;28;20472;-71
2022/07/19 03:10:55;;;;;;;8.40;5.10;;;;;;;22.37;60.93;101862.53;5027195;28;20029;-70
2022/07/19 03:13:21;;;;;;;7.93;4.20;;;;;;;22.36;60.81;101865.31;5057820;28;20043;-69
2022/07/19 03:15:46;;;;;;;6.75;4.00;;;;;;;22.33;60.76;101866.38;5064178;28;20093;-69
2022/07/19 03:18:11;;;;;;;6.35;4.20;;;;;;;22.31;61.21;101857.59;5063665;28;20040;-70
2022/07/19 03:20:37;;;;;;;8.57;4.53;;;;;;;22.32;60.81;101859.28;5048601;28;20036;-70
2022/07/19 03:23:02;;;;;;;8.27;4.75;;;;;;;22.33;60.67;101861.00;5044321;28;20029;-70
2022/07/19 03:25:27;;;;;;;7.80;4.90;;;;;;;22.34;60.59;101862.75;5056904;28;20025;-71
2022/07/19 03:27:53;;;;;;;12.73;4.95;;;;;;;22.30;60.85;101858.53;5064425;28;20051;-70
2022/07/19 03:30:19;;;;;;;7.63;4.93;;;;;;;22.29;60.94;101865.72;5062956;28;20037;-70
2022/07/19 03:32:44;;;;;;;6.93;5.13;;;;;;;22.25;60.98;101864.22;5063343;28;20028;-71
2022/07/19 03:35:09;;;;;;;7.53;5.00;;;;;;;22.22;60.87;101862.59;5058266;28;20032;-70
2022/07/19 03:37:35;;;;;;;10.13;5.40;;;;;;;22.17;61.33;101862.06;5044424;28;20027;-71
2022/07/19 03:40:00;;;;;;;8.38;4.95;;;;;;;22.15;61.35;101863.97;5043425;28;20025;-70
2022/07/19 03:42:26;;;;;;;10.88;5.30;;;;;;;22.10;61.79;101860.75;5063942;28;20032;-71
2022/07/19 03:44:51;;;;;;;6.50;5.20;;;;;;;22.09;61.94;101853.66;5062906;28;20591;-69
2022/07/19 03:47:16;;;;;;;9.57;5.05;;;;;;;22.04;62.47;101859.34;5062793;28;20123;-70
2022/07/19 03:49:42;;;;;;;8.32;5.28;;;;;;;21.99;62.67;101863.28;5063193;28;20056;-69
2022/07/19 03:52:07;;;;;;;10.60;5.82;;;;;;;21.99;62.67;101864.16;5063681;28;20051;-70
2022/07/19 03:54:33;;;;;;;9.30;5.82;;;;;;;22.00;62.75;101865.03;5064215;28;20036;-72
2022/07/19 03:56:58;;;;;;;10.90;5.97;;;;;;;21.99;62.53;101861.47;5063010;28;20034;-71
2022/07/19 03:59:23;;;;;;;8.50;6.05;;;;;;;22.01;62.72;101856.00;5063575;28;20043;-71
2022/07/19 04:01:50;;;;;;;14.68;6.57;;;;;;;21.95;62.51;101859.94;5052667;28;20491;-72
2022/07/19 04:04:15;;;;;;;10.57;6.03;;;;;;;21.92;62.80;101869.06;5047680;28;20581;-70
2022/07/19 04:06:40;;;;;;;9.18;5.75;;;;;;;21.92;62.43;101860.16;5056368;28;20032;-72
2022/07/19 04:09:06;;;;;;;9.93;6.65;;;;;;;21.91;62.22;101858.44;5068072;28;20394;-70
2022/07/19 04:11:31;;;;;;;10.70;6.68;;;;;;;21.92;62.87;101862.84;5066498;28;20663;-70
2022/07/19 04:13:57;;;;;;;13.57;7.35;;;;;;;21.93;62.59;101864.56;5049648;28;20033;-70
2022/07/19 04:16:22;;;;;;;11.10;7.15;;;;;;;21.97;62.56;101849.97;5063198;28;20016;-69
2022/07/19 04:18:47;;;;;;;12.00;7.57;;;;;;;21.99;62.57;101847.19;5031804;28;20045;-70
2022/07/19 04:21:13;;;;;;;10.27;7.20;;;;;;;21.98;62.72;101851.69;5046575;28;20021;-69
2022/07/19 04:23:38;;;;;;;9.48;6.72;;;;;;;21.99;63.05;101847.19;5042756;28;20514;-70
2022/07/19 04:26:03;;;;;;;13.82;7.78;;;;;;;22.02;63.20;101857.72;5067385;28;20025;-71
2022/07/19 04:28:29;;;;;;;10.88;7.75;;;;;;;22.04;62.56;101855.78;5066124;28;20465;-70
2022/07/19 04:30:54;;;;;;;13.30;7.65;;;;;;;22.08;62.59;101858.16;5066404;28;20448;-70
2022/07/19 04:33:20;;;;;;;11.23;7.47;;;;;;;22.10;62.59;101858.06;5058084;28;20531;-70
2022/07/19 04:35:45;;;;;;;9.88;6.97;;;;;;;22.15;61.99;101850.56;5047180;28;20505;-70
2022/07/19 04:38:11;;;;;;;10.02;6.63;;;;;;;22.20;62.03;101856.47;5052075;28;20478;-70
2022/07/19 04:40:36;;;;;;;12.40;7.53;;;;;;;22.28;61.77;101855.09;5067465;28;20020;-70
2022/07/19 04:43:02;;;;;;;13.45;7.85;;;;;;;22.32;61.67;101853.91;5065914;28;20486;-70
2022/07/19 04:45:28;;;;;;;14.57;8.25;;;;;;;22.39;61.46;101857.06;5065835;28;20153;-71
2022/07/19 04:47:53;;;;;;;14.77;7.30;;;;;;;22.46;61.26;101856.50;5065829;28;20028;-69
2022/07/19 04:50:19;;;;;;;11.20;7.45;;;;;;;22.52;61.23;101849.00;5067000;28;20054;-70
2022/07/19 04:52:44;;;;;;;14.50;7.70;;;;;;;22.56;61.24;101845.16;5065910;28;20021;-70
2022/07/19 04:55:09;;;;;;;12.25;7.47;;;;;;;22.62;61.06;101852.81;5065950;28;20029;-68
2022/07/19 04:57:35;;;;;;;10.82;7.45;;;;;;;22.72;60.90;101853.00;5066320;28;20029;-68
2022/07/19 05:00:01;;;;;;;15.07;8.25;;;;;;;22.76;60.91;101856.34;5062915;28;20016;-65
2022/07/19 05:02:26;;;;;;;10.82;7.45;;;;;;;22.83;60.74;101846.91;5063421;28;20027;-67
2022/07/19 05:04:51;;;;;;;9.18;6.53;;;;;;;22.89;60.39;101857.22;5065555;28;20064;-68
2022/07/19 05:07:17;;;;;;;11.05;7.13;;;;;;;22.97;60.11;101862.91;5061103;28;20064;-68
2022/07/19 05:09:42;;;;;;;9.60;7.60;;;;;;;23.02;60.04;101862.56;5048665;28;20025;-68
2022/07/19 05:12:09;;;;;;;11.02;7.60;;;;;;;23.06;59.62;101855.16;5059682;28;20023;-68
2022/07/19 05:14:34;;;;;;;11.32;7.82;;;;;;;23.10;59.37;101862.91;5046823;28;20526;-68
2022/07/19 05:17:00;;;;;;;10.25;7.15;;;;;;;23.20;58.99;101855.03;5060361;28;20021;-67
2022/07/19 05:19:25;;;;;;;10.05;7.30;;;;;;;23.26;58.54;101848.34;5046760;28;20095;-67
2022/07/19 05:21:50;;;;;;;13.88;7.75;;;;;;;23.34;58.33;101839.72;5046561;28;20029;-67
2022/07/19 05:24:16;;;;;;;8.75;6.75;;;;;;;23.42;58.30;101848.09;5054233;28;20067;-68
2022/07/19 05:26:42;;;;;;;9.55;7.63;;;;;;;23.48;58.19;101858.41;5052853;28;20147;-67
2022/07/19 05:29:07;;;;;;;9.30;6.60;;;;;;;23.55;58.27;101860.66;5046369;28;20021;-65
2022/07/19 05:31:32;;;;;;;10.48;7.03;;;;;;;23.62;57.71;101859.22;5046087;28;20064;-68
2022/07/19 05:33:58;;;;;;;7.95;5.50;;;;;;;23.73;57.65;101859.31;5046567;28;20053;-69
2022/07/19 05:36:23;;;;;;;14.70;6.53;;;;;;;23.88;57.06;101859.13;5046217;28;20028;-68
2022/07/19 05:38:48;;;;;;;12.60;7.28;;;;;;;23.87;57.33;101856.56;5046226;28;20021;-68
2022/07/19 05:41:16;;;;;;;12.02;7.30;;;;;;;23.92;57.13;101860.63;5052914;28;20522;-68
2022/07/19 05:43:41;;;;;;;8.38;6.28;;;;;;;23.99;57.55;101861.03;5059413;28;20486;-69
2022/07/19 05:46:07;;;;;;;8.90;6.30;;;;;;;24.15;57.42;101859.88;5048940;28;20162;-78
2022/07/19 05:48:32;;;;;;;11.48;6.05;;;;;;;24.26;57.41;101857.22;5066209;28;20108;-69
2022/07/19 05:50:58;;;;;;;9.95;7.07;;;;;;;24.36;56.42;101852.84;5065608;28;20568;-70
2022/07/19 05:53:24;;;;;;;11.95;6.65;;;;;;;24.42;56.51;101851.53;5054803;28;20056;-73
2022/07/19 05:55:49;;;;;;;12.48;7.60;;;;;;;24.48;56.88;101852.88;5045546;28;20025;-77
2022/07/19 05:58:17;;;;;;;19.60;7.38;;;;;;;24.54;56.09;101854.22;5034367;28;20044;-72
2022/07/19 06:01:17;;;;;;;12.00;7.10;;;;;;;24.63;56.54;101847.25;5064623;28;20138;-71
2022/07/19 06:03:28;;;;;;;11.35;7.22;;;;;;;24.76;56.06;101852.53;5059965;28;20033;-71
2022/07/19 06:05:53;;;;;;;9.25;5.70;;;;;;;24.86;54.77;101846.31;5045730;28;20043;-71
2022/07/19 06:08:19;;;;;;;15.65;7.63;;;;;;;24.87;54.19;101849.91;5026012;28;20052;-72
2022/07/19 06:10:44;;;;;;;10.32;7.55;;;;;;;24.96;53.77;101854.53;5066047;28;20055;-74
2022/07/19 06:13:09;;;;;;;12.15;7.38;;;;;;;25.02;53.48;101847.81;5064486;28;20049;-71
2022/07/19 06:15:35;;;;;;;11.82;7.55;;;;;;;25.08;53.02;101844.59;5064084;28;20019;-70
2022/07/19 06:18:00;;;;;;;11.25;7.43;;;;;;;25.16;52.18;101843.16;5064463;28;20398;-71
2022/07/19 06:20:25;;;;;;;13.70;7.63;;;;;;;25.24;52.42;101841.53;5062665;28;20394;-72
2022/07/19 06:22:51;;;;;;;14.65;7.13;;;;;;;25.34;52.58;101836.25;5064576;28;20398;-71
2022/07/19 06:25:16;;;;;;;13.45;6.60;;;;;;;25.43;51.72;101842.72;5057352;28;20395;-72
2022/07/19 06:27:41;;;;;;;13.18;6.97;;;;;;;25.54;51.85;101840.97;5045100;28;20032;-72
2022/07/19 06:30:07;;;;;;;10.70;6.45;;;;;;;25.60;51.64;101844.06;5064670;28;20021;-71
2022/07/19 06:32:32;;;;;;;9.77;5.38;;;;;;;25.75;51.37;101841.06;5056797;28;20703;-71
2022/07/19 06:34:58;;;;;;;11.57;5.45;;;;;;;25.88;50.86;101842.75;5064933;28;20111;-71
2022/07/19 06:37:23;;;;;;;12.40;6.70;;;;;;;25.95;50.71;101852.88;5042887;28;20123;-71
2022/07/19 06:39:48;;;;;;;12.73;5.80;;;;;;;26.05;50.85;101844.88;5044884;28;20039;-71
2022/07/19 06:42:14;;;;;;;8.85;4.80;;;;;;;26.19;50.00;101843.69;5057031;28;20077;-70
2022/07/19 06:44:39;;;;;;;15.57;6.82;;;;;;;26.30;50.25;101844.66;5064107;28;20343;-70
2022/07/19 06:47:04;;;;;;;10.35;6.10;;;;;;;26.36;49.95;101844.13;5052433;28;20498;-70
2022/07/19 06:49:30;;;;;;;7.85;5.10;;;;;;;26.43;49.73;101841.75;5026874;28;20029;-70
2022/07/19 06:51:55;;;;;;;14.00;5.13;;;;;;;26.49;49.24;101838.53;5043590;28;20037;-70
2022/07/19 06:54:20;;;;;;;16.52;7.22;;;;;;;26.58;48.38;101842.28;5044199;28;20029;-71
2022/07/19 06:56:46;;;;;;;21.40;6.38;;;;;;;26.73;48.46;101834.69;5053758;28;20016;-71
2022/07/19 06:59:11;;;;;;;18.08;5.93;;;;;;;26.80;48.27;101826.88;5063597;28;20029;-70
2022/07/19 07:01:36;;;;;;;8.77;4.38;;;;;;;26.90;48.48;101827.75;5062386;28;20103;-70
2022/07/19 07:04:02;;;;;;;14.07;6.38;;;;;;;26.95;48.13;101830.06;5046598;28;20025;-70
2022/07/19 07:06:27;;;;;;;14.00;6.35;;;;;;;27.07;48.01;101834.41;5062544;28;20088;-69
2022/07/19 07:08:52;;;;;;;18.05;5.43;;;;;;;27.12;48.10;101825.91;5063126;28;20069;-69
2022/07/19 07:11:18;;;;;;;14.35;4.88;;;;;;;27.31;47.78;101829.63;5062990;28;20071;-75
2022/07/19 07:13:43;;;;;;;9.40;5.20;;;;;;;27.44;47.19;101822.09;5063575;28;20523;-76
2022/07/19 07:16:08;;;;;;;11.82;5.38;;;;;;;27.49;46.71;101825.25;5044612;28;20036;-73
2022/07/19 07:18:34;;;;;;;14.13;5.88;;;;;;;27.57;46.62;101823.69;5062624;28;20037;-73
2022/07/19 07:20:59;;;;;;;12.63;5.70;;;;;;;27.71;46.82;101822.44;5045233;28;20020;-69
2022/07/19 07:23:25;;;;;;;12.95;4.85;;;;;;;27.83;46.92;101820.44;5062531;28;20085;-69
2022/07/19 07:25:50;;;;;;;11.07;5.05;;;;;;;27.86;47.33;101820.16;5063646;28;20032;-69
2022/07/19 07:28:15;;;;;;;16.10;5.43;;;;;;;27.92;47.11;101811.47;5058518;28;20078;-70
2022/07/19 07:30:41;;;;;;;11.45;4.93;;;;;;;27.93;47.02;101812.34;5061996;28;20025;-72
2022/07/19 07:33:06;;;;;;;8.10;5.22;;;;;;;28.15;47.20;101811.16;5062910;28;20108;-74
2022/07/19 07:35:31;;;;;;;13.02;5.20;;;;;;;28.13;46.99;101807.72;5077839;28;20067;-71
2022/07/19 07:37:57;;;;;;;6.30;4.43;;;;;;;28.23;47.02;101821.28;5061976;28;20036;-68
2022/07/19 07:40:22;;;;;;;9.65;4.53;;;;;;;28.30;46.93;101818.84;5044817;28;20024;-68
2022/07/19 07:42:48;;;;;;;6.30;4.00;;;;;;;28.40;46.42;101816.97;5062853;28;20025;-67
2022/07/19 07:45:14;;;;;;;12.60;4.85;;;;;;;28.49;45.68;101813.38;5061266;28;20440;-70
2022/07/19 07:47:40;;;;;;;12.00;4.78;;;;;;;28.60;45.01;101819.63;5062853;28;20744;-70
2022/07/19 07:50:06;;;;;;;9.20;4.32;;;;;;;28.70;44.71;101819.59;5062683;28;20116;-72
2022/07/19 07:52:32;;;;;;;7.47;4.03;;;;;;;28.84;44.75;101821.78;5062630;28;20025;-72
2022/07/19 07:54:57;;;;;;;13.55;4.22;;;;;;;28.88;44.58;101811.50;5062798;28;20040;-74
2022/07/19 07:57:23;;;;;;;11.30;4.40;;;;;;;28.96;44.14;101808.91;5062966;28;20475;-72
2022/07/19 07:59:48;;;;;;;16.30;5.10;;;;;;;29.11;44.27;101816.56;5061526;28;20105;-69
2022/07/19 08:02:13;;;;;;;9.27;4.28;;;;;;;29.18;43.40;101812.25;5062340;28;20067;-70
2022/07/19 08:04:39;;;;;;;10.05;5.00;;;;;;;29.12;42.75;101810.13;5061486;28;20498;-69
2022/07/19 08:07:04;;;;;;;10.55;5.68;;;;;;;29.31;42.21;101806.44;5047323;28;20045;-71
2022/07/19 08:09:31;;;;;;;9.10;5.07;;;;;;;29.38;42.45;101812.13;5042411;28;20053;-73
2022/07/19 08:11:56;;;;;;;10.57;5.55;;;;;;;29.49;42.10;101809.16;5055453;28;20035;-68
2022/07/19 08:14:21;;;;;;;15.55;5.72;;;;;;;29.56;42.29;101805.88;5062265;28;20099;-71
2022/07/19 08:16:47;;;;;;;9.20;6.18;;;;;;;29.59;43.35;101811.00;5059313;28;20059;-73
2022/07/19 08:19:12;;;;;;;16.55;6.53;;;;;;;29.64;43.39;101805.94;5062060;28;20044;-68
2022/07/19 08:21:38;;;;;;;12.70;4.90;;;;;;;29.75;43.03;101803.00;5043757;28;20548;-71
2022/07/19 08:24:03;;;;;;;7.53;4.40;;;;;;;29.86;42.99;101806.47;5063320;28;20466;-79
2022/07/19 08:26:30;;;;;;;8.82;5.07;;;;;;;29.93;42.38;101799.41;5061642;28;20114;-75
2022/07/19 08:28:55;;;;;;;10.35;5.88;;;;;;;29.98;41.59;101804.38;5063114;28;20491;-70
2022/07/19 08:31:21;;;;;;;10.88;4.93;;;;;;;30.01;41.73;101794.03;5059232;28;20035;-65
2022/07/19 08:33:46;;;;;;;14.43;5.35;;;;;;;30.08;41.34;101796.09;5055683;28;20105;-65
2022/07/19 08:36:11;;;;;;;14.52;5.65;;;;;;;30.27;40.41;101790.50;5024939;28;20060;-66
2022/07/19 08:38:38;;;;;;;9.05;5.03;;;;;;;30.42;40.04;101789.03;5046104;28;20368;-67
2022/07/19 08:41:04;;;;;;;12.07;6.57;;;;;;;30.46;39.76;101788.56;5063914;28;20021;-68
2022/07/19 08:43:29;;;;;;;19.02;6.75;;;;;;;30.55;38.96;101786.72;5060319;28;20095;-67
2022/07/19 08:45:59;;;;;;;13.75;5.55;;;;;;;30.57;38.23;101781.13;5065325;28;20136;-67
2022/07/19 08:48:25;;;;;;;11.23;6.72;;;;;;;30.57;39.16;101783.84;5069877;28;20025;-71
2022/07/19 08:50:52;;;;;;;19.20;7.75;;;;;;;30.67;38.95;101784.56;5065190;28;20029;-67
2022/07/19 08:53:18;;;;;;;14.48;6.40;;;;;;;30.79;38.35;101784.31;5065487;28;20069;-68
2022/07/19 08:55:43;;;;;;;12.73;6.35;;;;;;;30.87;38.23;101781.63;5065964;28;20024;-65
2022/07/19 08:58:09;;;;;;;19.25;6.55;;;;;;;30.81;37.98;101777.69;5065382;28;20043;-64
2022/07/19 09:00:34;;;;;;;15.27;5.78;;;;;;;30.85;38.33;101778.25;5064763;28;20131;-64
2022/07/19 09:03:06;;;;;;;15.10;6.03;;;;;;;30.97;37.74;101778.78;5065432;28;20040;-64
2022/07/19 09:05:33;;;;;;;11.85;5.60;;;;;;;31.07;38.19;101774.06;5065245;28;20043;-64
2022/07/19 09:08:11;;;;;;;12.57;5.32;;;;;;;31.05;37.86;101786.09;5065697;28;20455;-65
2022/07/19 09:10:40;;;;;;;18.48;6.25;;;;;;;31.09;38.26;101782.88;5064688;28;20123;-65
2022/07/19 09:13:07;;;;;;;12.45;5.82;;;;;;;31.02;37.53;101777.25;5063497;28;20021;-65
2022/07/19 09:15:42;;;;;;;12.88;5.22;;;;;;;31.18;37.65;101786.47;5064214;28;20721;-65
2022/07/19 09:18:20;;;;;;;12.88;4.68;;;;;;;31.38;36.68;101772.59;5063093;28;20032;-67
2022/07/19 09:20:48;;;;;;;11.17;4.10;;;;;;;31.40;35.28;101773.28;5045185;28;20020;-66
2022/07/19 09:23:13;;;;;;;13.27;4.30;;;;;;;31.53;35.36;101775.50;5065493;28;20554;-67
2022/07/19 09:25:41;;;;;;;6.18;3.47;;;;;;;31.72;34.31;101771.59;5061403;28;20028;-68
2022/07/19 09:28:07;;;;;;;13.10;3.42;;;;;;;31.91;34.26;101769.53;5063650;28;20114;-67
2022/07/19 09:30:42;;;;;;;10.05;2.80;;;;;;;32.03;33.58;101767.34;5065297;28;20113;-68
2022/07/19 09:33:13;;;;;;;6.57;2.92;;;;;;;32.06;34.05;101758.81;5065487;28;20023;-67
2022/07/19 09:35:45;;;;;;;7.05;3.40;;;;;;;32.18;34.10;101764.75;5065958;28;20492;-68
2022/07/19 09:38:30;;;;;;;7.15;2.75;;;;;;;32.30;33.33;101757.06;5065671;28;20020;-67
2022/07/19 09:41:11;;;;;;;10.48;3.03;;;;;;;32.45;32.77;101749.00;5065951;28;20079;-67
2022/07/19 09:43:54;;;;;;;7.47;2.85;;;;;;;32.65;31.91;101749.44;5065999;28;20031;-66
2022/07/19 09:46:37;;;;;;;7.40;2.60;;;;;;;32.76;32.14;101750.94;5064488;28;20477;-67
2022/07/19 09:49:12;;;;;;;6.95;2.42;;;;;;;32.87;31.88;101746.91;5065782;28;20017;-67
2022/07/19 09:51:40;;;;;;;8.45;2.75;;;;;;;32.87;31.63;101755.09;5081134;28;20023;-67
2022/07/19 09:54:08;;;;;;;7.32;2.78;;;;;;;33.06;31.52;101747.53;5065937;28;20028;-66
2022/07/19 09:56:33;;;;;;;7.07;2.63;;;;;;;33.19;31.29;101746.94;5065828;28;20050;-67
2022/07/19 09:58:59;;;;;;;4.07;2.28;;;;;;;33.32;31.28;101746.34;5065274;28;20056;-67
2022/07/19 10:01:25;;;;;;;5.00;2.10;;;;;;;33.50;31.09;101740.53;5064121;28;20036;-67
2022/07/19 10:03:54;;;;;;;8.10;2.63;;;;;;;33.55;31.16;101739.16;5065128;28;20379;-65
2022/07/19 10:06:20;;;;;;;7.95;2.60;;;;;;;33.63;30.84;101741.84;5065526;28;20112;-66
2022/07/19 10:08:46;;;;;;;20.52;2.70;;;;;;;33.77;30.92;101741.00;5065206;28;20115;-67
2022/07/19 10:11:12;;;;;;;8.63;2.65;;;;;;;33.81;31.34;101737.91;5064945;28;20478;-66
2022/07/19 10:13:37;;;;;;;6.82;2.47;;;;;;;33.95;31.56;101734.34;5064808;28;20495;-67
2022/07/19 10:16:06;;;;;;;4.60;2.60;;;;;;;34.01;30.64;101730.84;5064955;28;20033;-67
2022/07/19 10:18:35;;;;;;;10.25;2.35;;;;;;;34.12;30.56;101725.97;5064634;28;20039;-67
2022/07/19 10:21:01;;;;;;;4.05;2.22;;;;;;;34.34;30.21;101726.09;5031129;28;20463;-67
2022/07/19 10:23:28;;;;;;;4.85;2.10;;;;;;;34.45;29.66;101714.66;5046620;28;20755;-67
2022/07/19 10:25:54;;;;;;;11.10;2.30;;;;;;;34.51;29.39;101722.09;5056367;28;20025;-66
2022/07/19 10:28:27;;;;;;;6.22;2.08;;;;;;;34.64;29.73;101717.84;5027521;28;20059;-66
2022/07/19 10:30:53;;;;;;;4.22;2.30;;;;;;;34.82;30.24;101716.59;5043698;28;20037;-67
2022/07/19 10:33:36;;;;;;;5.90;2.15;;;;;;;34.85;29.33;101714.28;5045188;28;20116;-67
2022/07/19 10:36:35;;;;;;;5.95;2.22;;;;;;;34.95;29.35;101716.72;5045264;28;20032;-66
2022/07/19 10:39:19;;;;;;;4.30;1.95;;;;;;;35.12;28.78;101706.34;5045189;28;20033;-68
2022/07/19 10:42:08;;;;;;;10.80;2.60;;;;;;;35.19;28.89;101706.47;5045135;28;20056;-68
2022/07/19 10:44:34;;;;;;;7.13;2.28;;;;;;;35.50;29.27;101715.34;5061048;28;20079;-68
2022/07/19 10:46:59;;;;;;;3.47;2.03;;;;;;;35.53;29.35;101710.34;5063564;28;20044;-70
2022/07/19 10:49:45;;;;;;;4.95;2.20;;;;;;;35.70;29.36;101704.59;5063862;28;20036;-69
2022/07/19 10:52:28;;;;;;;4.72;2.40;;;;;;;35.71;28.90;101706.28;5043298;28;20039;-69
2022/07/19 10:55:15;;;;;;;3.65;1.80;;;;;;;35.50;27.91;101704.38;5068503;28;20035;-69
2022/07/19 10:57:41;;;;;;;9.37;2.00;;;;;;;35.66;27.80;101697.75;5047766;28;20032;-68
2022/07/19 11:00:18;;;;;;;8.23;2.00;;;;;;;35.84;28.70;101697.28;5063205;28;20040;-68
2022/07/19 11:02:44;;;;;;;6.93;1.63;;;;;;;35.93;28.34;101695.22;5063600;28;20104;-68
2022/07/19 11:05:22;;;;;;;4.45;1.80;;;;;;;35.88;28.65;101700.47;5062723;28;20028;-68
2022/07/19 11:07:49;;;;;;;9.82;2.08;;;;;;;35.92;27.44;101688.06;5064426;28;20127;-70
2022/07/19 11:10:25;;;;;;;7.70;2.63;;;;;;;36.02;28.55;101688.53;5065475;28;20021;-70
2022/07/19 11:12:50;;;;;;;6.00;2.20;;;;;;;36.36;28.06;101685.13;5063000;28;20023;-69
2022/07/19 11:15:16;;;;;;;9.55;2.28;;;;;;;36.48;28.42;101677.16;5062676;28;20025;-69
2022/07/19 11:18:02;;;;;;;2.67;2.10;;;;;;;36.44;27.26;101682.19;5062741;28;20028;-69
2022/07/19 11:20:30;;;;;;;7.22;2.05;;;;;;;36.54;27.99;101682.66;5062095;28;20127;-69
2022/07/19 11:22:56;;;;;;;;;;;;;;;36.56;28.98;101682.44;5060211;28;20166;-69